createdAt,value
2023-01-02T00:01:00.305Z,72.99
2023-01-02T00:03:27.894Z,72.50
2023-01-02T00:05:56.798Z,71.60
2023-01-02T00:08:24.270Z,72.93
2023-01-02T00:10:53.197Z,72.14
2023-01-02T00:13:21.456Z,72.88
2023-01-02T00:15:48.975Z,72.59
2023-01-02T00:18:16.515Z,73.08
2023-01-02T00:20:43.994Z,72.71
2023-01-02T00:23:12.760Z,73.28
2023-01-02T00:25:40.322Z,73.96
2023-01-02T00:28:07.760Z,73.11
2023-01-02T00:30:38.591Z,73.36
2023-01-02T00:33:06.270Z,73.40
2023-01-02T00:35:33.756Z,73.70
2023-01-02T00:38:01.178Z,73.49
2023-01-02T00:40:29.978Z,73.47
2023-01-02T00:42:57.491Z,73.23
2023-01-02T00:45:25.062Z,73.14
2023-01-02T00:47:52.547Z,73.56
2023-01-02T00:50:20.169Z,73.64
2023-01-02T00:52:47.926Z,73.09
2023-01-02T00:55:15.438Z,74.00
2023-01-02T00:57:44.160Z,74.59
2023-01-02T01:00:16.983Z,74.98
2023-01-02T01:02:47.636Z,73.53
2023-01-02T01:05:15.267Z,75.72
2023-01-02T01:07:42.684Z,74.81
2023-01-02T01:10:10.345Z,75.28
2023-01-02T01:12:37.782Z,75.41
2023-01-02T01:15:08.470Z,75.73
2023-01-02T01:17:35.994Z,76.18
2023-01-02T01:20:03.472Z,76.41
2023-01-02T01:22:30.910Z,74.32
2023-01-02T01:24:58.347Z,75.15
2023-01-02T01:27:25.863Z,76.08
2023-01-02T01:29:54.063Z,75.63
2023-01-02T01:32:22.970Z,76.15
2023-01-02T01:34:50.381Z,74.96
2023-01-02T01:37:17.824Z,74.78
2023-01-02T01:39:45.235Z,77.10
2023-01-02T01:42:14.403Z,75.56
2023-01-02T01:44:45.847Z,74.96
2023-01-02T01:47:19.856Z,74.82
2023-01-02T01:49:52.294Z,75.08
2023-01-02T01:52:23.501Z,74.95
2023-01-02T01:54:57.684Z,73.81
2023-01-02T01:57:29.513Z,73.93
2023-01-02T01:59:58.154Z,73.82
2023-01-02T02:02:28.571Z,73.93
2023-01-02T02:05:00.617Z,72.82
2023-01-02T02:07:28.568Z,73.61
2023-01-02T02:10:01.085Z,74.17
2023-01-02T02:12:30.359Z,74.68
2023-01-02T02:14:57.775Z,74.68
2023-01-02T02:17:34.202Z,74.29
2023-01-02T02:20:14.081Z,73.39
2023-01-02T02:23:20.518Z,73.91
2023-01-02T02:26:21.107Z,73.96
2023-01-02T02:29:27.623Z,73.20
2023-01-02T02:32:06.002Z,74.41
2023-01-02T02:34:40.990Z,73.59
2023-01-02T02:37:18.750Z,73.51
2023-01-02T02:40:01.357Z,73.34
2023-01-02T02:42:40.311Z,73.82
2023-01-02T02:45:15.032Z,74.65
2023-01-02T02:47:50.307Z,73.38
2023-01-02T02:50:25.318Z,72.67
2023-01-02T02:52:58.061Z,72.63
2023-01-02T02:55:30.109Z,72.69
2023-01-02T02:57:59.448Z,72.86
2023-01-02T03:00:27.015Z,74.82
2023-01-02T03:02:55.956Z,76.28
2023-01-02T03:05:30.702Z,74.77
2023-01-02T03:08:06.153Z,73.07
2023-01-02T03:10:44.002Z,73.73
2023-01-02T03:13:18.453Z,73.53
2023-01-02T03:15:54.882Z,72.94
2023-01-02T03:18:35.478Z,72.49
2023-01-02T03:21:08.230Z,72.30
2023-01-02T03:23:40.390Z,72.04
2023-01-02T03:26:08.249Z,71.87
2023-01-02T03:28:38.671Z,71.18
2023-01-02T03:31:10.739Z,71.50
2023-01-02T03:33:44.385Z,71.11
2023-01-02T03:36:17.803Z,71.60
2023-01-02T03:38:52.996Z,70.86
2023-01-02T03:41:24.307Z,71.30
2023-01-02T03:43:57.080Z,71.18
2023-01-02T03:46:33.221Z,70.57
2023-01-02T03:49:07.383Z,71.16
2023-01-02T03:51:35.855Z,70.81
2023-01-02T03:54:03.741Z,70.57
2023-01-02T03:56:41.877Z,70.42
2023-01-02T03:59:16.794Z,69.78
2023-01-02T04:01:50.509Z,69.86
2023-01-02T04:04:27.144Z,70.82
2023-01-02T04:06:59.113Z,70.97
2023-01-02T04:09:30.381Z,70.71
2023-01-02T04:12:02.909Z,70.86
2023-01-02T04:14:35.338Z,71.26
2023-01-02T04:17:05.631Z,70.82
2023-01-02T04:19:39.183Z,71.22
2023-01-02T04:22:11.249Z,71.53
2023-01-02T04:24:43.322Z,70.80
2023-01-02T04:27:14.802Z,70.23
2023-01-02T04:29:42.406Z,69.54
2023-01-02T04:32:15.535Z,69.92
2023-01-02T04:34:46.755Z,69.67
2023-01-02T04:37:28.235Z,70.48
2023-01-02T04:40:00.511Z,69.31
2023-01-02T04:42:28.009Z,69.30
2023-01-02T04:44:55.444Z,69.50
2023-01-02T04:47:22.957Z,70.22
2023-01-02T04:49:51.694Z,69.05
2023-01-02T04:52:19.196Z,68.91
2023-01-02T04:54:46.645Z,69.15
2023-01-02T04:57:14.106Z,69.08
2023-01-02T04:59:41.589Z,68.88
2023-01-02T05:02:09.126Z,67.96
2023-01-02T05:04:36.640Z,68.77
2023-01-02T05:07:05.722Z,68.75
2023-01-02T05:09:33.176Z,68.23
2023-01-02T05:12:00.775Z,68.31
2023-01-02T05:14:30.748Z,68.81
2023-01-02T05:16:58.168Z,69.38
2023-01-02T05:19:25.632Z,69.30
2023-01-02T05:22:10.639Z,68.33
2023-01-02T05:24:39.402Z,69.42
2023-01-02T05:27:06.793Z,69.41
2023-01-02T05:29:34.231Z,68.88
2023-01-02T05:32:01.659Z,69.45
2023-01-02T05:34:29.112Z,68.55
2023-01-02T05:36:56.549Z,67.61
2023-01-02T05:39:24.088Z,68.00
2023-01-02T05:41:52.861Z,68.63
2023-01-02T05:44:20.301Z,67.84
2023-01-02T05:46:47.758Z,68.91
2023-01-02T05:49:15.215Z,69.01
2023-01-02T05:51:42.647Z,69.24
2023-01-02T05:54:10.381Z,69.08
2023-01-02T05:56:37.803Z,67.93
2023-01-02T05:59:09.222Z,68.68
2023-01-02T06:01:37.008Z,67.77
2023-01-02T06:04:04.871Z,70.21
2023-01-02T06:06:34.857Z,69.73
2023-01-02T06:09:02.915Z,70.06
2023-01-02T06:11:30.969Z,69.03
2023-01-02T06:13:58.911Z,68.29
2023-01-02T06:16:28.300Z,67.63
2023-01-02T06:18:56.233Z,68.20
2023-01-02T06:21:24.526Z,67.47
2023-01-02T06:23:55.926Z,67.96
2023-01-02T06:26:27.688Z,69.21
2023-01-02T06:28:58.497Z,67.82
2023-01-02T06:31:29.691Z,68.91
2023-01-02T06:33:58.707Z,67.77
2023-01-02T06:36:27.830Z,68.16
2023-01-02T06:38:55.260Z,67.48
2023-01-02T06:41:22.760Z,67.81
2023-01-02T06:43:51.394Z,68.45
2023-01-02T06:46:20.612Z,67.50
2023-01-02T06:48:49.792Z,69.19
2023-01-02T06:51:19.567Z,68.04
2023-01-02T06:53:47.496Z,67.83
2023-01-02T06:56:17.470Z,69.03
2023-01-02T06:58:44.982Z,67.64
2023-01-02T07:01:16.756Z,67.95
2023-01-02T07:03:44.581Z,66.46
2023-01-02T07:06:15.548Z,66.12
2023-01-02T07:08:44.002Z,66.61
2023-01-02T07:11:14.157Z,67.17
2023-01-02T07:13:43.418Z,66.89
2023-01-02T07:16:13.748Z,66.08
2023-01-02T07:18:41.909Z,66.10
2023-01-02T07:21:11.340Z,66.57
2023-01-02T07:23:41.490Z,66.44
2023-01-02T07:26:09.567Z,66.87
2023-01-02T07:28:37.989Z,65.81
2023-01-02T07:31:09.111Z,66.75
2023-01-02T07:33:36.847Z,66.81
2023-01-02T07:36:07.264Z,66.67
2023-01-02T07:38:35.641Z,66.48
2023-01-02T07:41:04.500Z,66.20
2023-01-02T07:43:31.996Z,65.34
2023-01-02T07:46:04.046Z,66.60
2023-01-02T07:48:31.633Z,66.26
2023-01-02T07:51:01.458Z,69.14
2023-01-02T07:53:29.104Z,67.20
2023-01-02T07:55:57.491Z,66.34
2023-01-02T07:58:26.431Z,67.75
2023-01-02T08:00:58.399Z,66.66
2023-01-02T08:03:29.090Z,68.18
2023-01-02T08:06:02.803Z,66.82
2023-01-02T08:08:30.235Z,66.06
2023-01-02T08:10:57.830Z,66.21
2023-01-02T08:13:26.597Z,66.19
2023-01-02T08:15:54.049Z,65.72
2023-01-02T08:18:21.488Z,65.75
2023-01-02T08:20:48.933Z,66.49
2023-01-02T08:23:16.372Z,66.58
2023-01-02T08:25:43.811Z,64.74
2023-01-02T08:28:11.241Z,65.44
2023-01-02T08:30:42.096Z,64.08
2023-01-02T08:33:09.584Z,65.49
2023-01-02T08:35:38.826Z,64.22
2023-01-02T08:38:06.653Z,63.65
2023-01-02T08:40:34.195Z,65.02
2023-01-02T08:43:01.638Z,64.15
2023-01-02T08:45:29.108Z,64.82
2023-01-02T08:47:57.923Z,64.10
2023-01-02T08:50:25.390Z,63.20
2023-01-02T08:52:52.878Z,64.48
2023-01-02T08:55:20.467Z,62.59
2023-01-02T08:57:47.905Z,62.44
2023-01-02T09:00:16.595Z,63.08
2023-01-02T09:02:44.228Z,63.27
2023-01-02T09:05:13.138Z,76.11
2023-01-02T09:07:40.690Z,70.44
2023-01-02T09:10:09.254Z,76.57
2023-01-02T09:12:36.851Z,71.12
2023-01-02T09:15:04.856Z,70.85
2023-01-02T09:17:32.878Z,70.70
2023-01-02T09:20:00.343Z,69.92
2023-01-02T09:22:29.223Z,70.22
2023-01-02T09:24:56.663Z,69.46
2023-01-02T09:27:24.117Z,63.00
2023-01-02T09:29:53.788Z,67.93
2023-01-02T09:32:21.386Z,66.50
2023-01-02T09:34:50.887Z,66.59
2023-01-02T09:37:18.557Z,66.63
2023-01-02T09:39:47.411Z,66.72
2023-01-02T09:42:16.918Z,65.48
2023-01-02T09:44:48.919Z,64.82
2023-01-02T09:47:21.006Z,63.55
2023-01-02T09:49:52.345Z,64.50
2023-01-02T09:52:22.301Z,63.94
2023-01-02T09:54:51.657Z,58.42
2023-01-02T09:57:36.080Z,59.03
2023-01-02T10:00:09.639Z,60.02
2023-01-02T10:02:49.889Z,60.97
2023-01-02T10:05:53.443Z,60.11
2023-01-02T10:08:32.298Z,60.83
2023-01-02T10:11:13.754Z,62.58
2023-01-02T10:16:39.264Z,60.22
2023-01-02T10:19:15.757Z,60.44
2023-01-02T10:21:45.489Z,61.46
2023-01-02T10:24:16.692Z,61.46
2023-01-02T10:26:49.206Z,59.73
2023-01-02T10:29:24.444Z,58.83
2023-01-02T10:31:56.586Z,59.05
2023-01-02T10:34:25.221Z,60.60
2023-01-02T10:36:53.082Z,60.46
2023-01-02T10:39:23.025Z,59.96
2023-01-02T10:41:54.713Z,60.22
2023-01-02T10:44:27.013Z,59.25
2023-01-02T10:46:55.618Z,60.35
2023-01-02T10:49:25.069Z,59.52
2023-01-02T10:51:58.104Z,60.29
2023-01-02T10:54:25.557Z,61.10
2023-01-02T10:56:55.067Z,60.42
2023-01-02T10:59:25.492Z,61.39
2023-01-02T11:01:54.891Z,60.30
2023-01-02T11:04:25.280Z,59.57
2023-01-02T11:06:56.319Z,61.11
2023-01-02T11:09:26.202Z,60.83
2023-01-02T11:11:56.430Z,61.22
2023-01-02T11:14:28.086Z,60.83
2023-01-02T11:16:58.663Z,60.62
2023-01-02T11:19:29.792Z,61.34
2023-01-02T11:21:58.044Z,64.12
2023-01-02T11:24:28.530Z,67.45
2023-01-02T11:27:01.364Z,66.29
2023-01-02T11:29:32.675Z,66.02
2023-01-02T11:32:02.093Z,65.66
2023-01-02T11:34:34.288Z,65.27
2023-01-02T11:37:04.798Z,64.50
2023-01-02T11:39:34.713Z,65.90
2023-01-02T11:42:34.912Z,65.56
2023-01-02T11:45:08.260Z,64.88
2023-01-02T11:47:40.222Z,64.53
2023-01-02T11:50:08.570Z,65.66
2023-01-02T11:52:42.598Z,64.06
2023-01-02T11:55:26.290Z,64.65
2023-01-02T11:58:01.992Z,64.09
2023-01-02T12:00:33.735Z,63.83
2023-01-02T12:03:06.325Z,66.25
2023-01-02T12:05:42.433Z,65.88
2023-01-02T12:08:20.822Z,67.20
2023-01-02T12:10:57.001Z,65.90
2023-01-02T12:13:52.930Z,66.21
2023-01-02T12:16:30.835Z,65.23
2023-01-02T12:19:11.326Z,66.83
2023-01-02T12:21:46.218Z,66.13
2023-01-02T12:24:43.317Z,65.09
2023-01-02T12:27:18.927Z,65.00
2023-01-02T12:30:09.280Z,64.97
2023-01-02T12:32:59.961Z,64.54
2023-01-02T12:35:47.054Z,65.27
2023-01-02T12:38:22.627Z,66.15
2023-01-02T12:41:01.997Z,66.48
2023-01-02T12:43:52.354Z,64.64
2023-01-02T12:46:36.509Z,64.82
2023-01-02T12:49:19.274Z,64.26
2023-01-02T12:51:57.318Z,68.19
2023-01-02T12:54:45.547Z,70.32
2023-01-02T12:57:22.665Z,68.42
2023-01-02T13:00:12.556Z,69.36
2023-01-02T13:03:20.275Z,68.52
2023-01-02T13:05:54.700Z,67.79
2023-01-02T13:08:27.656Z,66.47
2023-01-02T13:10:57.125Z,65.17
2023-01-02T13:13:28.405Z,67.00
2023-01-02T13:16:03.433Z,67.41
2023-01-02T13:18:59.985Z,65.90
2023-01-02T13:21:33.837Z,66.49
2023-01-02T13:24:02.023Z,67.55
2023-01-02T13:26:31.376Z,66.50
2023-01-02T13:31:46.421Z,66.23
2023-01-02T13:34:23.182Z,64.33
2023-01-02T13:36:58.488Z,64.08
2023-01-02T13:39:30.059Z,64.93
2023-01-02T13:42:18.312Z,65.21
2023-01-02T13:44:48.449Z,65.11
2023-01-02T13:47:25.710Z,64.00
2023-01-02T13:50:08.400Z,64.10
2023-01-02T13:52:36.092Z,63.71
2023-01-02T13:55:31.593Z,64.75
2023-01-02T13:58:24.327Z,63.32
2023-01-02T14:00:55.207Z,65.39
2023-01-02T14:03:37.676Z,64.59
2023-01-02T14:06:31.938Z,65.38
2023-01-02T14:09:11.810Z,64.38
2023-01-02T14:11:57.016Z,64.12
2023-01-02T14:14:33.252Z,64.66
2023-01-02T14:17:14.596Z,64.94
2023-01-02T14:19:43.579Z,66.81
2023-01-02T14:22:15.240Z,64.93
2023-01-02T14:24:44.927Z,64.64
2023-01-02T14:27:23.424Z,64.02
2023-01-02T14:29:53.943Z,65.03
2023-01-02T14:32:25.076Z,65.28
2023-01-02T14:34:55.372Z,66.56
2023-01-02T14:37:34.319Z,64.21
2023-01-02T14:40:11.858Z,65.14
2023-01-02T14:42:58.223Z,65.30
2023-01-02T14:45:28.198Z,65.15
2023-01-02T14:48:01.827Z,64.90
2023-01-02T14:50:34.274Z,64.73
2023-01-02T14:53:10.853Z,64.73
2023-01-02T14:55:42.365Z,65.73
2023-01-02T14:58:20.179Z,65.10
2023-01-02T15:00:50.204Z,64.43
2023-01-02T15:03:27.792Z,64.37
2023-01-02T15:06:00.592Z,65.06
2023-01-02T15:08:37.404Z,64.16
2023-01-02T15:11:35.108Z,64.17
2023-01-02T15:14:04.464Z,65.76
2023-01-02T15:16:35.850Z,65.51
2023-01-02T15:19:03.769Z,64.70
2023-01-02T15:21:31.617Z,65.23
2023-01-02T15:24:01.965Z,67.27
2023-01-02T15:26:33.950Z,67.52
2023-01-02T15:29:04.471Z,67.16
2023-01-02T15:31:32.413Z,67.40
2023-01-02T15:34:01.328Z,69.19
2023-01-02T15:36:35.393Z,69.04
2023-01-02T15:39:08.636Z,69.93
2023-01-02T15:41:43.482Z,69.47
2023-01-02T15:44:30.737Z,69.75
2023-01-02T15:46:59.786Z,68.27
2023-01-02T15:49:27.884Z,69.26
2023-01-02T15:51:57.458Z,70.18
2023-01-02T15:54:27.129Z,72.03
2023-01-02T15:56:54.608Z,71.84
2023-01-02T15:59:27.751Z,71.27
2023-01-02T16:01:55.427Z,72.11
2023-01-02T16:04:27.659Z,72.74
2023-01-02T16:06:56.906Z,72.85
2023-01-02T16:09:28.063Z,72.16
2023-01-02T16:11:58.432Z,73.37
2023-01-02T16:14:33.018Z,74.15
2023-01-02T16:17:04.563Z,72.02
2023-01-02T16:19:36.138Z,72.94
2023-01-02T16:22:15.527Z,72.48
2023-01-02T16:24:48.379Z,73.98
2023-01-02T16:27:24.027Z,73.25
2023-01-02T16:29:53.244Z,74.02
2023-01-02T16:32:26.934Z,73.52
2023-01-02T16:35:03.439Z,74.56
2023-01-02T16:37:36.483Z,72.86
2023-01-02T16:41:00.676Z,73.33
2023-01-02T16:43:30.740Z,75.25
2023-01-02T16:45:58.862Z,76.57
2023-01-02T16:48:29.780Z,75.88
2023-01-02T16:50:59.135Z,75.86
2023-01-02T16:53:29.626Z,75.75
2023-01-02T16:55:58.536Z,75.41
2023-01-02T16:58:26.473Z,75.72
2023-01-02T17:00:55.540Z,74.50
2023-01-02T17:03:25.369Z,76.59
2023-01-02T17:06:02.418Z,75.60
2023-01-02T17:08:31.521Z,76.91
2023-01-02T17:11:00.945Z,78.36
2023-01-02T17:13:29.842Z,80.14
2023-01-02T17:15:57.788Z,78.61
2023-01-02T17:18:25.919Z,78.07
2023-01-02T17:20:53.494Z,75.84
2023-01-02T17:23:21.111Z,76.43
2023-01-02T17:25:48.962Z,74.79
2023-01-02T17:28:18.072Z,74.72
2023-01-02T17:30:49.989Z,74.17
2023-01-02T17:33:18.632Z,71.79
2023-01-02T17:35:46.547Z,72.94
2023-01-02T17:38:14.289Z,71.90
2023-01-02T17:40:41.733Z,71.89
2023-01-02T17:43:09.196Z,71.21
2023-01-02T17:45:38.070Z,71.12
2023-01-02T17:48:11.662Z,71.02
2023-01-02T17:50:41.012Z,71.00
2023-01-02T17:53:08.653Z,70.70
2023-01-02T17:55:36.272Z,70.64
2023-01-02T17:58:04.137Z,71.04
2023-01-02T18:00:31.550Z,69.70
2023-01-02T18:03:00.320Z,72.30
2023-01-02T18:05:27.950Z,70.60
2023-01-02T18:07:55.443Z,69.94
2023-01-02T18:10:25.955Z,70.04
2023-01-02T18:12:56.785Z,69.94
2023-01-02T18:15:24.568Z,69.84
2023-01-02T18:17:53.442Z,71.44
2023-01-02T18:20:23.804Z,70.79
2023-01-02T18:22:51.402Z,69.65
2023-01-02T18:25:20.889Z,69.96
2023-01-02T18:27:48.914Z,73.16
2023-01-02T18:30:20.979Z,72.41
2023-01-02T18:32:49.527Z,72.65
2023-01-02T18:35:55.582Z,72.12
2023-01-02T18:38:19.417Z,71.57
2023-01-02T18:40:47.240Z,70.26
2023-01-02T18:43:23.082Z,69.96
2023-01-02T18:45:54.418Z,68.46
2023-01-02T18:48:23.157Z,69.89
2023-01-02T18:50:57.860Z,70.48
2023-01-02T18:53:30.431Z,69.25
2023-01-02T18:56:03.107Z,68.73
2023-01-02T18:58:40.877Z,68.47
2023-01-02T19:01:23.048Z,69.33
2023-01-02T19:03:56.505Z,67.92
2023-01-02T19:06:25.778Z,67.50
2023-01-02T19:08:56.201Z,67.92
2023-01-02T19:11:51.843Z,67.88
2023-01-02T19:14:22.931Z,67.30
2023-01-02T19:16:57.364Z,67.64
2023-01-02T19:19:26.793Z,69.18
2023-01-02T19:21:55.788Z,68.05
2023-01-02T19:24:30.160Z,70.38
2023-01-02T19:26:59.603Z,72.43
2023-01-02T19:29:28.645Z,71.82
2023-01-02T19:32:02.372Z,72.23
2023-01-02T19:34:40.300Z,74.26
2023-01-02T19:37:35.588Z,73.40
2023-01-02T19:40:14.637Z,77.78
2023-01-02T19:42:46.129Z,79.55
2023-01-02T19:45:17.027Z,73.76
2023-01-02T19:47:44.930Z,75.87
2023-01-02T19:50:14.883Z,77.43
2023-01-02T19:52:42.655Z,75.29
2023-01-02T19:55:12.545Z,75.06
2023-01-02T19:57:40.340Z,74.63
2023-01-02T20:00:12.692Z,75.11
2023-01-02T20:02:41.003Z,78.43
2023-01-02T20:05:09.592Z,77.67
2023-01-02T20:07:37.009Z,75.55
2023-01-02T20:10:05.187Z,74.62
2023-01-02T20:12:35.500Z,74.38
2023-01-02T20:15:05.256Z,74.33
2023-01-02T20:17:33.045Z,74.93
2023-01-02T20:20:00.761Z,84.51
2023-01-02T20:22:28.877Z,84.64
2023-01-02T20:24:56.580Z,74.20
2023-01-02T20:27:24.897Z,78.87
2023-01-02T20:29:56.194Z,78.75
2023-01-02T20:32:24.743Z,75.51
2023-01-02T20:34:52.603Z,76.27
2023-01-02T20:37:21.047Z,75.51
2023-01-02T20:39:49.869Z,73.84
2023-01-02T20:42:18.018Z,72.09
2023-01-02T20:44:45.801Z,73.81
2023-01-02T20:47:14.771Z,71.73
2023-01-02T20:49:42.663Z,71.83
2023-01-02T20:52:10.429Z,70.08
2023-01-02T20:54:38.193Z,69.69
2023-01-02T20:57:05.650Z,65.21
2023-01-02T20:59:33.240Z,69.88
2023-01-02T21:02:00.803Z,72.08
2023-01-02T21:04:36.259Z,72.96
2023-01-02T21:07:04.145Z,72.50
2023-01-02T21:09:31.588Z,75.17
2023-01-02T21:11:58.993Z,77.34
2023-01-02T21:14:26.385Z,78.45
2023-01-02T21:16:54.734Z,79.90
2023-01-02T21:19:22.432Z,79.80
2023-01-02T21:21:51.215Z,79.67
2023-01-02T21:24:18.678Z,78.02
2023-01-02T21:26:46.113Z,76.40
2023-01-02T21:29:13.532Z,76.18
2023-01-02T21:31:41.021Z,75.90
2023-01-02T21:34:08.490Z,74.73
2023-01-02T21:36:37.021Z,74.92
2023-01-02T21:39:05.940Z,74.88
2023-01-02T21:41:50.940Z,74.88
2023-01-02T21:44:18.343Z,73.28
2023-01-02T21:46:45.866Z,75.18
2023-01-02T21:49:13.325Z,74.17
2023-01-02T21:51:40.742Z,75.53
2023-01-02T21:54:09.490Z,75.07
2023-01-02T21:56:36.909Z,74.55
2023-01-02T21:59:04.321Z,74.87
2023-01-02T22:01:32.018Z,78.19
2023-01-02T22:03:59.590Z,78.13
2023-01-02T22:06:33.808Z,77.37
2023-01-02T22:09:01.800Z,80.69
2023-01-02T22:11:48.109Z,78.78
2023-01-02T22:14:15.653Z,76.94
2023-01-02T22:16:43.145Z,77.13
2023-01-02T22:19:10.682Z,78.54
2023-01-02T22:21:38.487Z,78.03
2023-01-02T22:24:06.532Z,76.18
2023-01-02T22:26:36.459Z,76.15
2023-01-02T22:29:04.337Z,75.69
2023-01-02T22:31:32.557Z,77.85
2023-01-02T22:34:00.505Z,79.81
2023-01-02T22:36:31.321Z,77.10
2023-01-02T22:39:26.584Z,76.88
2023-01-02T22:41:51.207Z,77.49
2023-01-02T22:44:22.207Z,76.99
2023-01-02T22:46:52.256Z,75.03
2023-01-02T22:49:23.793Z,78.32
2023-01-02T22:52:09.624Z,77.67
2023-01-02T22:54:37.103Z,78.14
2023-01-02T22:57:10.165Z,76.77
2023-01-02T22:59:37.650Z,74.90
2023-01-02T23:02:05.789Z,80.14
2023-01-02T23:04:33.504Z,79.49
2023-01-02T23:09:49.474Z,76.20
2023-01-02T23:12:18.209Z,77.63
2023-01-02T23:14:45.670Z,79.55
2023-01-02T23:17:31.143Z,79.00
2023-01-02T23:19:58.581Z,78.95
2023-01-02T23:22:26.135Z,82.88
2023-01-02T23:24:54.042Z,80.23
2023-01-02T23:27:23.063Z,80.20
2023-01-02T23:29:50.498Z,79.28
2023-01-02T23:32:18.115Z,77.06
2023-01-02T23:34:45.562Z,76.85
2023-01-02T23:37:13.042Z,79.72
2023-01-02T23:39:40.676Z,78.78
2023-01-02T23:42:08.150Z,78.41
2023-01-02T23:44:38.340Z,77.86
2023-01-02T23:47:10.210Z,77.29
2023-01-02T23:49:40.886Z,76.33
2023-01-02T23:52:08.315Z,79.52
2023-01-02T23:54:35.760Z,81.62
2023-01-02T23:57:03.226Z,79.52
2023-01-02T23:59:30.672Z,78.29
